Time;durP1;ratioP1;P1;durP2;ratioP2;P2;SDS_P1;SDS_P2;PMS_P1;PMS_P2;Temp;Humidity;BMP_temperature;BMP_pressure;BME280_temperature;BME280_humidity;BME280_pressure;Samples;Min_cycle;Max_cycle;Signal;HPM_P1;HPM_P2
2021/04/05 00:00:18;;;;;;;10.73;6.60;;;6.00;77.10;;;;;;2081651;28;20048;-81
2021/04/05 00:01:18;;;;;;;11.93;6.82;;;6.00;77.10;;;;;;2076170;28;20401;-81
2021/04/05 00:02:19;;;;;;;12.48;6.75;;;6.00;77.10;;;;;;2077457;28;20044;-81
2021/04/05 00:03:21;;;;;;;10.77;6.57;;;6.00;77.20;;;;;;2074576;28;20029;-82
2021/04/05 00:04:24;;;;;;;11.70;6.45;;;6.00;77.20;;;;;;2076676;28;20122;-81
2021/04/05 00:05:30;;;;;;;10.32;6.70;;;6.00;77.80;;;;;;2074484;28;20040;-82
2021/04/05 00:06:31;;;;;;;10.23;6.45;;;6.00;77.20;;;;;;2080140;28;20034;-81
2021/04/05 00:07:32;;;;;;;12.00;6.97;;;6.00;77.20;;;;;;2079256;28;20406;-81
2021/04/05 00:08:32;;;;;;;12.15;6.80;;;5.90;77.20;;;;;;2079172;28;20025;-81
2021/04/05 00:09:33;;;;;;;10.88;6.95;;;6.00;77.30;;;;;;2076487;28;20036;-81
2021/04/05 00:10:41;;;;;;;11.73;7.00;;;6.00;77.90;;;;;;2076309;28;20029;-81
2021/04/05 00:11:42;;;;;;;11.70;6.78;;;5.90;77.30;;;;;;2082019;28;20025;-81
2021/04/05 00:12:43;;;;;;;12.07;7.35;;;6.00;77.90;;;;;;2081282;28;20060;-81
2021/04/05 00:13:44;;;;;;;13.43;8.18;;;5.90;77.30;;;;;;2073174;28;20030;-82
2021/04/05 00:14:46;;;;;;;11.95;7.55;;;5.90;78.00;;;;;;2073272;28;20018;-82
2021/04/05 00:15:47;;;;;;;12.55;7.85;;;5.90;77.40;;;;;;2070569;28;20081;-81
2021/04/05 00:16:48;;;;;;;11.70;7.55;;;5.90;77.50;;;;;;2078451;28;20041;-80
2021/04/05 00:17:48;;;;;;;13.00;7.50;;;5.90;77.50;;;;;;2079626;28;20060;-80
2021/04/05 00:18:50;;;;;;;10.82;7.40;;;5.90;77.60;;;;;;2070135;28;20524;-81
2021/04/05 00:19:51;;;;;;;11.63;7.38;;;5.90;77.50;;;;;;2061853;28;20042;-80
2021/04/05 00:21:06;;;;;;;12.43;7.45;;;5.90;77.60;;;;;;2072130;28;20038;-81
2021/04/05 00:22:07;;;;;;;13.32;7.75;;;5.90;77.60;;;;;;2077316;28;20014;-81
2021/04/05 00:23:08;;;;;;;12.82;7.90;;;5.90;77.60;;;;;;2081968;28;20058;-81
2021/04/05 00:24:09;;;;;;;13.82;7.95;;;5.90;77.60;;;;;;2075506;28;20026;-82
2021/04/05 00:25:11;;;;;;;12.52;7.57;;;5.90;77.60;;;;;;2072798;28;20038;-82
2021/04/05 00:26:12;;;;;;;12.25;7.80;;;5.90;77.60;;;;;;2086582;28;20383;-81
2021/04/05 00:27:13;;;;;;;13.15;8.10;;;5.90;77.70;;;;;;2086689;28;20059;-81
2021/04/05 00:28:13;;;;;;;11.55;7.65;;;5.90;77.80;;;;;;2091497;28;20092;-81
2021/04/05 00:29:14;;;;;;;15.45;7.55;;;5.90;77.70;;;;;;2093404;28;20048;-81
2021/04/05 00:30:20;;;;;;;12.70;7.30;;;5.90;77.70;;;;;;2085853;28;20537;-81
2021/04/05 00:31:20;;;;;;;12.50;7.60;;;5.90;77.70;;;;;;2082419;28;20071;-81
2021/04/05 00:32:21;;;;;;;12.63;7.35;;;5.90;77.70;;;;;;2078932;28;20167;-81
2021/04/05 00:33:22;;;;;;;12.30;7.70;;;5.90;77.80;;;;;;2081029;28;20434;-81
2021/04/05 00:34:23;;;;;;;13.43;7.53;;;5.90;77.80;;;;;;2081740;28;20017;-81
2021/04/05 00:35:27;;;;;;;14.20;7.60;;;5.90;77.80;;;;;;2081213;28;20030;-81
2021/04/05 00:36:27;;;;;;;10.88;7.05;;;5.90;77.80;;;;;;2087697;28;20052;-81
2021/04/05 00:37:28;;;;;;;14.52;7.40;;;5.90;77.80;;;;;;2072038;28;20057;-79
2021/04/05 00:38:29;;;;;;;12.13;7.18;;;5.90;77.80;;;;;;2064694;28;20152;-81
2021/04/05 00:39:29;;;;;;;14.15;8.05;;;5.90;77.90;;;;;;2072612;28;20472;-81
2021/04/05 00:40:34;;;;;;;12.73;8.05;;;5.90;77.90;;;;;;2072339;28;20136;-82
2021/04/05 00:41:36;;;;;;;12.05;7.53;;;5.90;77.90;;;;;;2083329;28;20152;-81
2021/04/05 00:42:38;;;;;;;13.73;8.07;;;5.90;77.80;;;;;;2082514;28;20021;-81
2021/04/05 00:43:41;;;;;;;11.68;7.47;;;5.90;77.80;;;;;;2081014;28;20083;-81
2021/04/05 00:44:42;;;;;;;13.73;7.85;;;5.90;77.80;;;;;;2086972;28;20072;-81
2021/04/05 00:45:44;;;;;;;13.35;8.23;;;5.90;77.80;;;;;;2080806;28;20037;-81
2021/04/05 00:46:45;;;;;;;13.30;8.48;;;5.90;77.90;;;;;;2083809;28;20033;-81
2021/04/05 00:47:50;;;;;;;14.30;8.38;;;5.90;77.90;;;;;;2071478;28;20049;-81
2021/04/05 00:48:52;;;;;;;11.40;7.53;;;5.90;77.90;;;;;;2068161;28;20428;-81
2021/04/05 00:49:53;;;;;;;12.80;8.23;;;5.90;77.90;;;;;;2089506;28;20120;-81
2021/04/05 00:51:01;;;;;;;12.65;7.82;;;5.90;77.90;;;;;;2080821;28;20420;-81
2021/04/05 00:52:04;;;;;;;11.52;7.70;;;5.90;77.90;;;;;;2082080;28;20113;-81
2021/04/05 00:53:12;;;;;;;12.27;8.18;;;5.90;77.90;;;;;;2093044;28;20119;-81
2021/04/05 00:54:13;;;;;;;13.75;8.32;;;5.90;77.90;;;;;;2089006;28;20021;-81
2021/04/05 00:55:14;;;;;;;12.82;8.00;;;5.90;77.90;;;;;;2080696;28;20026;-81
2021/04/05 00:56:18;;;;;;;11.65;7.85;;;5.90;77.90;;;;;;2072146;28;20392;-80
2021/04/05 00:57:19;;;;;;;11.07;7.35;;;5.90;78.00;;;;;;2074995;28;20069;-81
2021/04/05 00:58:20;;;;;;;12.18;8.07;;;5.90;78.00;;;;;;2080769;28;20073;-81
2021/04/05 00:59:20;;;;;;;11.50;7.60;;;5.90;78.00;;;;;;2088192;28;20063;-81
2021/04/05 01:00:46;;;;;;;14.95;7.88;;;5.90;78.00;;;;;;2085308;28;20155;-81
2021/04/05 01:01:47;;;;;;;13.60;8.23;;;5.90;78.00;;;;;;2074836;28;20041;-81
2021/04/05 01:02:48;;;;;;;11.65;7.82;;;5.90;78.10;;;;;;2064598;28;20041;-81
2021/04/05 01:03:49;;;;;;;14.25;7.70;;;5.90;78.10;;;;;;2064050;28;20026;-81
2021/04/05 01:04:50;;;;;;;13.40;7.95;;;5.90;78.00;;;;;;2075866;28;20036;-81
2021/04/05 01:05:53;;;;;;;13.02;8.23;;;5.90;78.70;;;;;;2072530;28;20391;-80
2021/04/05 01:06:54;;;;;;;15.20;8.57;;;5.90;78.20;;;;;;2072105;28;20026;-81
2021/04/05 01:07:56;;;;;;;14.75;9.10;;;5.90;78.30;;;;;;2074021;28;20034;-81
2021/04/05 01:08:57;;;;;;;12.88;8.38;;;5.90;78.20;;;;;;2078543;28;20021;-82
2021/04/05 01:09:58;;;;;;;14.90;8.80;;;5.90;78.20;;;;;;2080785;28;20482;-82
2021/04/05 01:10:59;;;;;;;13.15;8.35;;;5.90;78.20;;;;;;2080107;28;20041;-81
2021/04/05 01:11:59;;;;;;;14.73;9.07;;;5.90;78.40;;;;;;2064387;28;20026;-82
2021/04/05 01:13:00;;;;;;;13.45;9.02;;;5.90;78.30;;;;;;2072613;28;20057;-81
2021/04/05 01:14:01;;;;;;;13.63;9.38;;;5.90;78.40;;;;;;2073169;28;20053;-81
2021/04/05 01:15:05;;;;;;;16.38;9.48;;;5.90;78.30;;;;;;2068916;28;20034;-81
2021/04/05 01:16:06;;;;;;;15.57;9.57;;;5.90;78.30;;;;;;2071621;28;20406;-82
2021/04/05 01:17:07;;;;;;;13.23;9.13;;;6.00;78.40;;;;;;2077614;28;20021;-81
2021/04/05 01:18:08;;;;;;;13.90;8.80;;;5.90;78.30;;;;;;2080865;28;20087;-81
2021/04/05 01:19:09;;;;;;;14.90;9.27;;;6.00;78.40;;;;;;2080818;28;20483;-81
2021/04/05 01:20:12;;;;;;;16.70;9.38;;;6.00;78.30;;;;;;2072555;28;20048;-81
2021/04/05 01:21:13;;;;;;;14.77;9.73;;;6.00;78.30;;;;;;2085417;28;20025;-81
2021/04/05 01:22:13;;;;;;;13.70;8.90;;;6.00;78.40;;;;;;2078922;28;20095;-81
2021/04/05 01:23:16;;;;;;;13.25;8.85;;;6.00;78.30;;;;;;2079887;28;20111;-82
2021/04/05 01:24:17;;;;;;;15.00;9.20;;;6.00;78.30;;;;;;2080699;28;20064;-82
2021/04/05 01:25:19;;;;;;;12.48;8.55;;;6.00;78.40;;;;;;2080116;28;20040;-82
2021/04/05 01:26:20;;;;;;;15.43;8.68;;;6.00;78.30;;;;;;2085972;28;20059;-82
2021/04/05 01:27:20;;;;;;;12.98;8.57;;;6.00;78.40;;;;;;2080741;28;20598;-82
2021/04/05 01:28:21;;;;;;;14.68;8.68;;;6.00;78.40;;;;;;2064557;28;20071;-82
2021/04/05 01:29:22;;;;;;;14.30;8.05;;;6.00;78.40;;;;;;2064469;28;20023;-82
2021/04/05 01:30:33;;;;;;;13.70;7.85;;;6.00;78.40;;;;;;2084885;28;20419;-82
2021/04/05 01:31:33;;;;;;;;;;;6.00;78.50;;;;;;2096414;28;20095;-82
2021/04/05 01:32:34;;;;;;;13.98;8.00;;;6.00;78.40;;;;;;2080749;28;20047;-82
2021/04/05 01:33:37;;;;;;;16.05;9.18;;;6.00;78.20;;;;;;2074926;28;20423;-82
2021/04/05 01:34:39;;;;;;;14.13;7.88;;;6.00;78.20;;;;;;2074276;28;20516;-82
2021/04/05 01:35:44;;;;;;;14.10;8.13;;;6.10;78.30;;;;;;2064181;28;20065;-81
2021/04/05 01:36:45;;;;;;;15.95;8.73;;;6.10;78.30;;;;;;2079378;28;20030;-81
2021/04/05 01:37:45;;;;;;;14.10;8.70;;;6.10;78.30;;;;;;2080374;28;20079;-82
2021/04/05 01:38:49;;;;;;;14.38;7.95;;;6.10;78.30;;;;;;2068065;28;20500;-82
2021/04/05 01:39:49;;;;;;;16.33;9.20;;;6.10;78.40;;;;;;2080311;28;20055;-82
2021/04/05 01:40:53;;;;;;;13.10;8.15;;;6.20;78.30;;;;;;2076598;28;20594;-82
2021/04/05 01:41:54;;;;;;;13.07;8.45;;;6.20;78.40;;;;;;2082833;28;20072;-81
2021/04/05 01:42:56;;;;;;;13.20;7.55;;;6.20;78.30;;;;;;2080339;28;20049;-81
2021/04/05 01:43:57;;;;;;;12.82;8.25;;;6.20;79.00;;;;;;2071383;28;20064;-81
2021/04/05 01:44:58;;;;;;;16.48;9.07;;;6.20;78.30;;;;;;2071782;28;20018;-81
2021/04/05 01:46:00;;;;;;;13.30;8.07;;;6.20;78.40;;;;;;2072509;28;20038;-81
2021/04/05 01:47:01;;;;;;;13.65;8.27;;;6.30;79.00;;;;;;2080703;28;20140;-82
2021/04/05 01:48:03;;;;;;;13.82;8.80;;;6.30;78.40;;;;;;2072132;28;20435;-81
2021/04/05 01:49:04;;;;;;;12.80;7.97;;;6.30;78.40;;;;;;2085179;28;20391;-82
2021/04/05 01:50:05;;;;;;;12.07;7.78;;;6.30;78.30;;;;;;2079561;28;20064;-81
2021/04/05 01:51:17;;;;;;;14.23;8.65;;;6.30;78.40;;;;;;2080288;28;20446;-81
2021/04/05 01:52:18;;;;;;;11.82;7.55;;;6.40;78.40;;;;;;2080234;28;20025;-82
2021/04/05 01:53:19;;;;;;;13.05;8.18;;;6.40;78.40;;;;;;2080815;28;20026;-81
2021/04/05 01:54:20;;;;;;;13.60;7.95;;;6.40;78.30;;;;;;2085134;28;20542;-81
2021/04/05 01:55:21;;;;;;;12.57;8.10;;;6.40;78.30;;;;;;2087043;28;20031;-81
2021/04/05 01:56:22;;;;;;;12.43;8.32;;;6.40;78.40;;;;;;2084445;28;20028;-81
2021/04/05 01:57:23;;;;;;;13.35;8.20;;;6.40;78.40;;;;;;2072380;28;20052;-81
2021/04/05 01:58:25;;;;;;;11.93;8.10;;;6.40;78.40;;;;;;2086041;28;20021;-82
2021/04/05 01:59:26;;;;;;;14.00;7.63;;;6.50;78.50;;;;;;2084818;28;20480;-81
2021/04/05 02:00:30;;;;;;;13.65;8.10;;;6.50;78.50;;;;;;2070159;28;20022;-81
2021/04/05 02:01:32;;;;;;;14.30;8.48;;;6.50;78.40;;;;;;2078242;28;20033;-82
2021/04/05 02:02:34;;;;;;;18.35;8.88;;;6.50;78.50;;;;;;2081082;28;20396;-81
2021/04/05 02:03:35;;;;;;;14.55;8.82;;;6.50;78.60;;;;;;2081095;28;20113;-82
2021/04/05 02:04:37;;;;;;;14.63;8.38;;;6.50;78.60;;;;;;2072539;28;20392;-81
2021/04/05 02:06:03;;;;;;;12.43;8.43;;;6.50;78.50;;;;;;2072030;28;20209;-81
2021/04/05 02:07:04;;;;;;;16.08;8.48;;;6.50;78.60;;;;;;2080458;28;20408;-81
2021/04/05 02:08:06;;;;;;;15.50;9.13;;;6.50;78.60;;;;;;2080282;28;20025;-81
2021/04/05 02:09:10;;;;;;;13.70;8.82;;;6.50;78.60;;;;;;2084354;28;20029;-82
2021/04/05 02:10:16;;;;;;;15.60;8.63;;;6.50;78.60;;;;;;2085874;28;20034;-81
2021/04/05 02:11:19;;;;;;;15.90;8.32;;;6.60;78.70;;;;;;2081481;28;20396;-81
2021/04/05 02:12:20;;;;;;;15.85;8.60;;;6.60;79.20;;;;;;2083316;28;20029;-82
2021/04/05 02:13:22;;;;;;;13.52;8.70;;;6.60;78.60;;;;;;2073345;28;20040;-81
2021/04/05 02:14:22;;;;;;;12.90;8.07;;;6.60;78.70;;;;;;2086879;28;20479;-82
2021/04/05 02:15:24;;;;;;;14.02;8.20;;;6.60;78.70;;;;;;2080413;28;20030;-81
2021/04/05 02:16:26;;;;;;;13.45;8.32;;;6.60;78.70;;;;;;2083161;28;20392;-81
2021/04/05 02:17:27;;;;;;;14.52;7.70;;;6.60;78.80;;;;;;2080576;28;20064;-81
2021/04/05 02:18:28;;;;;;;14.02;7.90;;;6.60;78.70;;;;;;2068371;28;20175;-81
2021/04/05 02:19:28;;;;;;;13.63;7.43;;;6.60;78.70;;;;;;2081539;28;20116;-81
2021/04/05 02:20:30;;;;;;;13.93;8.25;;;6.60;78.70;;;;;;2089499;28;20120;-81
2021/04/05 02:21:31;;;;;;;16.38;8.98;;;6.70;78.80;;;;;;2077296;28;20082;-81
2021/04/05 02:22:31;;;;;;;16.48;8.93;;;6.70;79.10;;;;;;2073059;28;20092;-81
2021/04/05 02:23:32;;;;;;;16.83;9.63;;;6.70;79.10;;;;;;2081185;28;20029;-81
2021/04/05 02:24:35;;;;;;;14.02;8.90;;;6.70;79.20;;;;;;2073805;28;20084;-81
2021/04/05 02:25:36;;;;;;;16.20;9.43;;;6.70;79.20;;;;;;2067239;28;20041;-81
2021/04/05 02:26:37;;;;;;;14.43;8.85;;;6.70;79.20;;;;;;2081658;28;20037;-81
2021/04/05 02:27:38;;;;;;;14.25;8.68;;;6.70;79.10;;;;;;2077037;28;20030;-81
2021/04/05 02:28:47;;;;;;;16.67;9.48;;;6.70;79.10;;;;;;2072969;28;20168;-81
2021/04/05 02:29:50;;;;;;;15.23;8.68;;;6.70;79.20;;;;;;2077886;28;20026;-81
2021/04/05 02:30:51;;;;;;;15.75;9.45;;;6.70;79.10;;;;;;2085497;28;20344;-81
2021/04/05 02:31:52;;;;;;;14.13;8.48;;;6.70;79.20;;;;;;2084462;28;20175;-82
2021/04/05 02:33:02;;;;;;;15.48;8.82;;;6.80;79.20;;;;;;2073772;28;20488;-81
2021/04/05 02:34:04;;;;;;;14.95;8.73;;;6.80;79.30;;;;;;2077895;28;20022;-81
2021/04/05 02:35:06;;;;;;;13.68;8.45;;;6.80;79.30;;;;;;2073685;28;20022;-81
2021/04/05 02:36:09;;;;;;;13.70;7.63;;;6.80;79.30;;;;;;2073756;28;20038;-81
2021/04/05 02:37:13;;;;;;;14.60;8.32;;;6.80;79.30;;;;;;2081872;28;20077;-81
2021/04/05 02:38:15;;;;;;;15.27;8.70;;;6.80;79.40;;;;;;2082319;28;20079;-81
2021/04/05 02:39:16;;;;;;;16.60;8.45;;;6.80;79.30;;;;;;2074804;28;20136;-81
2021/04/05 02:40:17;;;;;;;15.63;8.30;;;6.80;79.40;;;;;;2072385;28;21010;-81
2021/04/05 02:41:19;;;;;;;14.02;8.25;;;6.80;79.40;;;;;;2080993;28;20040;-81
2021/04/05 02:42:20;;;;;;;16.90;9.00;;;6.80;79.50;;;;;;2074695;28;20022;-81
2021/04/05 02:43:21;;;;;;;16.30;8.25;;;6.80;79.50;;;;;;2081867;28;20184;-81
2021/04/05 02:44:22;;;;;;;16.83;8.27;;;6.80;79.60;;;;;;2081796;28;20056;-81
2021/04/05 02:45:25;;;;;;;15.95;8.52;;;6.80;79.60;;;;;;2085777;28;20028;-81
2021/04/05 02:46:28;;;;;;;13.13;8.15;;;6.80;79.70;;;;;;2072830;28;20030;-81
2021/04/05 02:47:30;;;;;;;12.73;8.10;;;6.80;79.70;;;;;;2073126;28;20387;-81
2021/04/05 02:48:35;;;;;;;17.00;8.82;;;6.80;79.70;;;;;;2078780;28;20075;-80
2021/04/05 02:49:37;;;;;;;17.50;8.88;;;6.80;79.80;;;;;;2081088;28;20422;-80
2021/04/05 02:50:39;;;;;;;15.05;8.32;;;6.80;79.80;;;;;;2081481;28;20479;-81
2021/04/05 02:51:45;;;;;;;14.18;8.05;;;6.80;79.80;;;;;;2073692;28;20072;-81
2021/04/05 02:52:48;;;;;;;15.13;8.25;;;6.80;79.90;;;;;;2066911;28;20509;-81
2021/04/05 02:54:07;;;;;;;14.80;8.13;;;6.80;79.90;;;;;;2082095;28;20053;-81
2021/04/05 02:55:10;;;;;;;14.35;8.07;;;6.80;80.00;;;;;;2085405;28;20086;-81
2021/04/05 02:56:12;;;;;;;15.88;8.63;;;6.90;80.00;;;;;;2085397;28;20524;-81
2021/04/05 02:57:14;;;;;;;15.65;8.70;;;6.80;80.10;;;;;;2081442;28;20025;-81
2021/04/05 02:58:15;;;;;;;14.43;8.32;;;6.90;80.10;;;;;;2083464;28;20427;-81
2021/04/05 02:59:17;;;;;;;15.52;8.60;;;6.90;80.10;;;;;;2081978;28;20021;-81
2021/04/05 03:00:19;;;;;;;15.43;8.05;;;6.90;80.10;;;;;;2066403;28;20041;-80
2021/04/05 03:01:22;;;;;;;16.60;8.57;;;6.90;80.20;;;;;;2071383;28;20460;-81
2021/04/05 03:02:23;;;;;;;17.20;8.75;;;6.90;80.20;;;;;;2074032;28;20022;-82
2021/04/05 03:03:24;;;;;;;16.13;8.40;;;6.90;80.30;;;;;;2065446;28;20037;-81
2021/04/05 03:04:24;;;;;;;16.63;8.13;;;6.90;80.20;;;;;;2065369;28;20042;-81
2021/04/05 03:05:26;;;;;;;14.10;7.90;;;6.90;80.20;;;;;;2073536;28;20026;-81
2021/04/05 03:06:28;;;;;;;15.05;8.85;;;6.90;80.20;;;;;;2072476;28;20026;-82
2021/04/05 03:07:29;;;;;;;13.90;7.60;;;7.00;80.30;;;;;;2080275;28;20108;-81
2021/04/05 03:08:30;;;;;;;13.15;7.20;;;7.00;80.30;;;;;;2074021;28;20446;-81
2021/04/05 03:09:31;;;;;;;16.38;8.30;;;7.00;80.30;;;;;;2081734;28;20021;-81
2021/04/05 03:10:35;;;;;;;14.23;8.48;;;7.00;80.30;;;;;;2089083;28;20033;-82
2021/04/05 03:11:37;;;;;;;16.05;8.02;;;7.00;80.30;;;;;;2072740;28;20144;-81
2021/04/05 03:12:40;;;;;;;15.02;8.10;;;7.00;80.30;;;;;;2066241;28;20058;-82
2021/04/05 03:13:41;;;;;;;14.63;8.13;;;7.00;80.30;;;;;;2075478;28;20026;-81
2021/04/05 03:14:42;;;;;;;14.85;8.18;;;7.10;80.40;;;;;;2076051;28;20025;-81
2021/04/05 03:15:43;;;;;;;14.82;7.97;;;7.00;80.30;;;;;;2077670;28;20396;-81
2021/04/05 03:16:45;;;;;;;15.85;8.70;;;7.10;80.40;;;;;;2080154;28;20053;-81
2021/04/05 03:17:48;;;;;;;16.58;8.70;;;7.10;80.50;;;;;;2087371;28;20529;-82
2021/04/05 03:18:51;;;;;;;14.27;8.00;;;7.10;80.50;;;;;;2081382;28;20060;-81
2021/04/05 03:19:53;;;;;;;15.93;8.40;;;7.10;80.50;;;;;;2073698;28;20026;-81
2021/04/05 03:20:54;;;;;;;15.60;8.30;;;7.10;80.60;;;;;;2074404;28;20025;-80
2021/04/05 03:21:55;;;;;;;14.07;7.60;;;7.10;80.50;;;;;;2073111;28;20109;-81
2021/04/05 03:22:56;;;;;;;12.57;7.63;;;7.10;80.50;;;;;;2081565;28;20029;-82
2021/04/05 03:24:00;;;;;;;11.68;7.82;;;7.10;80.50;;;;;;2081714;28;20036;-81
2021/04/05 03:25:01;;;;;;;11.55;7.40;;;7.10;80.50;;;;;;2080963;28;20026;-81
2021/04/05 03:26:02;;;;;;;12.65;6.93;;;7.20;80.60;;;;;;2087692;28;20029;-81
2021/04/05 03:27:04;;;;;;;11.98;6.95;;;7.20;81.20;;;;;;2073358;28;20049;-81
2021/04/05 03:28:04;;;;;;;13.10;7.32;;;7.20;80.60;;;;;;2065314;28;20034;-81
2021/04/05 03:29:08;;;;;;;13.10;7.55;;;7.20;80.70;;;;;;2073437;28;20057;-81
2021/04/05 03:30:15;;;;;;;11.95;7.03;;;7.20;80.70;;;;;;2080885;28;20017;-81
2021/04/05 03:31:18;;;;;;;14.13;7.05;;;7.20;80.60;;;;;;2083415;28;20045;-81
2021/04/05 03:32:21;;;;;;;16.20;8.27;;;7.20;80.70;;;;;;2076858;28;20390;-82
2021/04/05 03:33:27;;;;;;;13.80;7.80;;;7.20;80.70;;;;;;2059530;28;20034;-81
2021/04/05 03:34:30;;;;;;;16.40;7.72;;;7.20;80.80;;;;;;2075721;28;20534;-81
2021/04/05 03:35:36;;;;;;;14.27;7.57;;;7.20;80.80;;;;;;2083640;28;20032;-82
2021/04/05 03:36:45;;;;;;;13.77;7.03;;;7.20;80.80;;;;;;2083335;28;20024;-82
2021/04/05 03:37:47;;;;;;;13.52;7.65;;;7.20;80.80;;;;;;2088516;28;20086;-82
2021/04/05 03:38:49;;;;;;;16.23;7.07;;;7.20;80.80;;;;;;2081270;28;20040;-82
2021/04/05 03:39:50;;;;;;;14.98;7.63;;;7.20;80.80;;;;;;2073091;28;20030;-82
2021/04/05 03:40:55;;;;;;;13.35;7.70;;;7.20;80.90;;;;;;2064990;28;20030;-81
2021/04/05 03:42:12;;;;;;;16.13;7.75;;;7.20;80.90;;;;;;2077211;28;20024;-82
2021/04/05 03:43:19;;;;;;;15.80;7.95;;;7.20;80.90;;;;;;2084137;28;20435;-82
2021/04/05 03:44:28;;;;;;;13.15;7.20;;;7.20;81.00;;;;;;2082110;28;20036;-82
2021/04/05 03:45:42;;;;;;;17.33;8.15;;;7.20;80.90;;;;;;2082012;28;20463;-82
2021/04/05 03:46:45;;;;;;;13.18;7.68;;;7.20;81.00;;;;;;2082910;28;20024;-82
2021/04/05 03:48:10;;;;;;;16.55;8.13;;;7.20;81.00;;;;;;2075999;28;20511;-82
2021/04/05 03:49:23;;;;;;;14.30;7.82;;;7.20;81.00;;;;;;2087873;28;20029;-81
2021/04/05 03:50:41;;;;;;;16.27;7.70;;;7.20;81.00;;;;;;2084263;28;20032;-81
2021/04/05 03:51:49;;;;;;;13.45;7.10;;;7.20;81.00;;;;;;2093695;28;20087;-81
2021/04/05 03:53:14;;;;;;;12.65;7.20;;;7.20;81.00;;;;;;2081343;28;20021;-82
2021/04/05 03:54:20;;;;;;;14.75;7.75;;;7.20;81.00;;;;;;2080864;28;20022;-81
2021/04/05 03:55:27;;;;;;;15.25;7.47;;;7.20;81.00;;;;;;2080686;28;20033;-81
2021/04/05 03:56:43;;;;;;;14.52;7.85;;;7.20;81.00;;;;;;2081031;28;20048;-81
2021/04/05 03:57:46;;;;;;;18.60;8.52;;;7.20;81.10;;;;;;2081128;28;20400;-82
2021/04/05 03:58:51;;;;;;;13.70;8.10;;;7.20;81.10;;;;;;2081087;28;20135;-81
2021/04/05 03:59:56;;;;;;;13.85;8.18;;;7.20;81.10;;;;;;2084366;28;20023;-81
2021/04/05 04:01:02;;;;;;;13.88;7.45;;;7.20;81.20;;;;;;2088336;28;20056;-81
2021/04/05 04:02:15;;;;;;;13.80;7.45;;;7.20;81.20;;;;;;2089527;28;20074;-81
2021/04/05 04:03:19;;;;;;;15.63;8.23;;;7.20;81.20;;;;;;2089483;28;20570;-81
2021/04/05 04:04:27;;;;;;;13.98;7.88;;;7.20;81.20;;;;;;2081105;28;20025;-81
2021/04/05 04:07:11;;;;;;;13.45;7.47;;;7.30;81.30;;;;;;2079296;28;20022;-81
2021/04/05 04:08:27;;;;;;;14.82;7.47;;;7.30;81.30;;;;;;2081044;28;20036;-81
2021/04/05 04:09:27;;;;;;;14.82;7.47;;;7.20;81.30;;;;;;2080115;28;20396;-81
2021/04/05 04:10:30;;;;;;;17.13;7.75;;;7.20;81.30;;;;;;2081548;28;20014;-81
2021/04/05 04:11:34;;;;;;;13.77;7.90;;;7.30;81.30;;;;;;2088644;28;20522;-81
2021/04/05 04:12:36;;;;;;;16.45;7.72;;;7.20;81.30;;;;;;2081333;28;20029;-82
2021/04/05 04:13:46;;;;;;;15.25;7.65;;;7.30;81.30;;;;;;2076604;28;20129;-82
2021/04/05 04:14:48;;;;;;;14.52;7.95;;;7.20;81.30;;;;;;2068784;28;20022;-81
2021/04/05 04:15:51;;;;;;;15.57;7.90;;;7.30;81.30;;;;;;2092891;28;20033;-81
2021/04/05 04:16:53;;;;;;;16.33;8.57;;;7.30;81.40;;;;;;2089588;28;20021;-80
2021/04/05 04:17:56;;;;;;;16.27;8.35;;;7.30;81.40;;;;;;2088407;28;20026;-81
2021/04/05 04:19:01;;;;;;;16.45;8.88;;;7.30;81.60;;;;;;2089022;28;20033;-82
2021/04/05 04:20:04;;;;;;;17.42;8.32;;;7.30;81.60;;;;;;2089752;28;20052;-81
2021/04/05 04:21:09;;;;;;;14.50;8.55;;;7.30;81.50;;;;;;2095750;28;20096;-81
2021/04/05 04:22:12;;;;;;;15.75;7.93;;;7.30;81.60;;;;;;2077989;28;20547;-81
2021/04/05 04:23:14;;;;;;;15.82;8.25;;;7.30;81.60;;;;;;2073840;28;20490;-81
2021/04/05 04:24:16;;;;;;;12.98;7.50;;;7.30;81.50;;;;;;2073730;28;20124;-80
2021/04/05 04:25:17;;;;;;;14.75;7.85;;;7.30;81.70;;;;;;2075158;28;20028;-81
2021/04/05 04:26:17;;;;;;;14.88;7.75;;;7.30;81.60;;;;;;2089006;28;20055;-82
2021/04/05 04:27:18;;;;;;;14.73;7.63;;;7.30;81.60;;;;;;2081172;28;20033;-81
2021/04/05 04:28:19;;;;;;;14.95;7.88;;;7.30;81.60;;;;;;2068373;28;20022;-80
2021/04/05 04:29:21;;;;;;;15.30;7.70;;;7.30;81.60;;;;;;2069916;28;20030;-80
2021/04/05 04:30:34;;;;;;;15.95;7.43;;;7.30;81.60;;;;;;2079462;28;20490;-80
2021/04/05 04:31:35;;;;;;;12.75;7.15;;;7.40;81.70;;;;;;2081883;28;20060;-80
2021/04/05 04:32:35;;;;;;;11.95;6.85;;;7.40;81.70;;;;;;2086772;28;20029;-81
2021/04/05 04:33:36;;;;;;;12.38;7.25;;;7.40;81.70;;;;;;2089116;28;20499;-81
2021/04/05 04:34:37;;;;;;;13.43;7.50;;;7.40;81.70;;;;;;2072726;28;20452;-81
2021/04/05 04:35:39;;;;;;;14.00;7.25;;;7.40;81.70;;;;;;2078679;28;20472;-81
2021/04/05 04:36:40;;;;;;;15.35;7.40;;;7.40;81.70;;;;;;2087118;28;20024;-81
2021/04/05 04:37:41;;;;;;;15.07;7.30;;;7.40;81.70;;;;;;2089295;28;20052;-80
2021/04/05 04:38:41;;;;;;;14.43;7.05;;;7.40;81.70;;;;;;2076245;28;20079;-81
2021/04/05 04:39:43;;;;;;;13.55;7.45;;;7.40;81.70;;;;;;2064513;28;20497;-81
2021/04/05 04:40:45;;;;;;;12.07;6.95;;;7.40;81.70;;;;;;2070890;28;20065;-80
2021/04/05 04:41:48;;;;;;;14.75;7.30;;;7.50;81.80;;;;;;2073141;28;20037;-81
2021/04/05 04:42:49;;;;;;;13.25;7.72;;;7.50;81.80;;;;;;2072558;28;20021;-80
2021/04/05 04:44:08;;;;;;;12.02;7.22;;;7.50;81.80;;;;;;2074405;28;20068;-80
2021/04/05 04:45:10;;;;;;;12.40;7.32;;;7.50;81.80;;;;;;2082816;28;20013;-80
2021/04/05 04:46:10;;;;;;;12.00;6.55;;;7.50;81.70;;;;;;2080924;28;20045;-81
2021/04/05 04:47:12;;;;;;;11.63;6.70;;;7.50;81.80;;;;;;2076204;28;20061;-80
2021/04/05 04:48:13;;;;;;;12.80;6.88;;;7.50;81.80;;;;;;2096496;28;20324;-81
2021/04/05 04:49:14;;;;;;;17.00;6.95;;;7.50;81.80;;;;;;2091846;28;20047;-80
2021/04/05 04:50:16;;;;;;;13.20;7.63;;;7.50;81.90;;;;;;2079918;28;20606;-81
2021/04/05 04:51:16;;;;;;;13.95;7.57;;;7.50;82.00;;;;;;2088100;28;20038;-81
2021/04/05 04:52:20;;;;;;;12.82;7.20;;;7.50;82.00;;;;;;2085137;28;20160;-81
2021/04/05 04:53:21;;;;;;;13.65;7.13;;;7.50;82.00;;;;;;2086463;28;20021;-80
2021/04/05 04:54:22;;;;;;;13.02;6.82;;;7.50;82.00;;;;;;2074398;28;20436;-80
2021/04/05 04:55:24;;;;;;;12.85;6.72;;;7.50;82.20;;;;;;2056711;28;20027;-80
2021/04/05 04:56:25;;;;;;;13.93;7.10;;;7.50;82.10;;;;;;2065653;28;20484;-81
2021/04/05 04:57:26;;;;;;;10.02;6.38;;;7.50;82.10;;;;;;2080305;28;20024;-81
2021/04/05 04:58:27;;;;;;;11.55;6.57;;;7.50;82.10;;;;;;2080706;28;20064;-81
2021/04/05 04:59:27;;;;;;;11.07;6.32;;;7.50;82.10;;;;;;2080998;28;20033;-81
2021/04/05 05:00:30;;;;;;;10.82;6.38;;;7.50;82.10;;;;;;2085546;28;20391;-80
2021/04/05 05:01:33;;;;;;;12.77;5.95;;;7.50;82.10;;;;;;2080634;28;20075;-80
2021/04/05 05:02:40;;;;;;;12.48;6.07;;;7.50;82.10;;;;;;2088485;28;20025;-80
2021/04/05 05:03:53;;;;;;;9.75;5.97;;;7.50;82.10;;;;;;2081784;28;20546;-80
2021/04/05 05:04:54;;;;;;;12.07;5.70;;;7.50;82.70;;;;;;2081723;28;20071;-81
2021/04/05 05:05:58;;;;;;;13.00;6.32;;;7.50;82.10;;;;;;2075002;28;20026;-81
2021/04/05 05:07:01;;;;;;;11.18;6.32;;;7.50;82.10;;;;;;2073066;28;20030;-81
2021/04/05 05:08:03;;;;;;;11.02;6.10;;;7.50;82.10;;;;;;2080827;28;20029;-81
2021/04/05 05:09:04;;;;;;;13.18;6.22;;;7.50;82.20;;;;;;2082184;28;20442;-80
2021/04/05 05:10:07;;;;;;;13.80;6.57;;;7.50;82.30;;;;;;2081387;28;20032;-80
2021/04/05 05:11:08;;;;;;;11.05;5.82;;;7.50;82.20;;;;;;2081102;28;20068;-81
2021/04/05 05:12:09;;;;;;;10.68;5.95;;;7.50;82.30;;;;;;2080792;28;20030;-81
2021/04/05 05:13:10;;;;;;;13.15;5.88;;;7.50;82.20;;;;;;2073071;28;20026;-80
2021/04/05 05:14:13;;;;;;;10.00;5.57;;;7.60;82.20;;;;;;2074292;28;20508;-80
2021/04/05 05:15:15;;;;;;;8.40;5.03;;;7.60;82.20;;;;;;2085818;28;20062;-80
2021/04/05 05:16:16;;;;;;;11.70;5.63;;;7.50;82.10;;;;;;2080464;28;20030;-80
2021/04/05 05:17:18;;;;;;;10.23;5.35;;;7.60;82.20;;;;;;2063584;28;20030;-81
2021/04/05 05:18:19;;;;;;;9.88;5.35;;;7.60;82.10;;;;;;2075401;28;20475;-81
2021/04/05 05:19:20;;;;;;;10.07;5.70;;;7.60;82.10;;;;;;2088934;28;20029;-81
2021/04/05 05:20:21;;;;;;;8.93;5.40;;;7.60;82.10;;;;;;2084768;28;20064;-81
2021/04/05 05:21:28;;;;;;;8.85;4.97;;;7.70;82.10;;;;;;2080963;28;20427;-81
2021/04/05 05:22:30;;;;;;;8.95;4.88;;;7.60;82.60;;;;;;2080932;28;20108;-81
2021/04/05 05:23:33;;;;;;;8.50;4.63;;;7.60;81.90;;;;;;2077679;28;20072;-81
2021/04/05 05:24:36;;;;;;;9.35;5.30;;;7.60;81.90;;;;;;2080468;28;20028;-81
2021/04/05 05:25:39;;;;;;;9.32;5.45;;;7.70;81.90;;;;;;2093657;28;20461;-81
2021/04/05 05:26:41;;;;;;;11.80;5.32;;;7.70;81.90;;;;;;2088158;28;20508;-81
2021/04/05 05:27:48;;;;;;;9.57;4.53;;;7.70;81.80;;;;;;2080830;28;20044;-81
2021/04/05 05:28:52;;;;;;;9.63;4.82;;;7.80;81.80;;;;;;2082599;28;20140;-81
2021/04/05 05:29:53;;;;;;;9.27;5.15;;;7.80;81.80;;;;;;2088582;28;20059;-81